createdAt,value
2023-02-05T00:01:23.475Z,9.10
2023-02-05T00:03:50.385Z,9.10
2023-02-05T00:06:17.306Z,9.10
2023-02-05T00:08:44.127Z,9.10
2023-02-05T00:11:10.866Z,9.10
2023-02-05T00:13:38.945Z,9.10
2023-02-05T00:16:20.618Z,9.10
2023-02-05T00:18:47.717Z,9.10
2023-02-05T00:21:17.005Z,9.10
2023-02-05T00:23:43.850Z,9.10
2023-02-05T00:26:10.937Z,9.10
2023-02-05T00:28:38.348Z,9.10
2023-02-05T00:31:16.636Z,9.10
2023-02-05T00:33:43.961Z,9.10
2023-02-05T00:36:12.683Z,9.10
2023-02-05T00:38:40.043Z,9.10
2023-02-05T00:41:06.683Z,9.00
2023-02-05T00:43:33.403Z,9.10
2023-02-05T00:46:00.368Z,9.00
2023-02-05T00:48:27.113Z,9.00
2023-02-05T00:50:53.833Z,9.10
2023-02-05T00:53:20.775Z,8.90
2023-02-05T00:55:47.447Z,8.90
2023-02-05T00:58:14.172Z,8.80
2023-02-05T01:00:40.948Z,8.80
2023-02-05T01:03:07.669Z,8.70
2023-02-05T01:05:35.420Z,8.70
2023-02-05T01:08:02.253Z,8.70
2023-02-05T01:10:29.058Z,8.70
2023-02-05T01:12:55.736Z,8.70
2023-02-05T01:15:22.517Z,8.70
2023-02-05T01:17:49.145Z,8.70
2023-02-05T01:20:15.909Z,8.70
2023-02-05T01:22:42.648Z,8.70
2023-02-05T01:25:09.503Z,8.70
2023-02-05T01:27:36.368Z,8.70
2023-02-05T01:30:04.002Z,8.80
2023-02-05T01:32:30.775Z,8.80
2023-02-05T01:34:57.553Z,8.80
2023-02-05T01:37:24.353Z,8.80
2023-02-05T01:39:51.059Z,8.80
2023-02-05T01:42:26.147Z,8.80
2023-02-05T01:45:25.088Z,8.80
2023-02-05T01:47:53.506Z,8.80
2023-02-05T01:50:36.486Z,8.90
2023-02-05T01:53:11.686Z,8.90
2023-02-05T01:55:41.018Z,8.90
2023-02-05T01:58:07.911Z,8.90
2023-02-05T02:00:34.584Z,8.90
2023-02-05T02:03:01.228Z,9.00
2023-02-05T02:05:27.902Z,9.00
2023-02-05T02:07:55.024Z,9.00
2023-02-05T02:10:21.792Z,9.10
2023-02-05T02:12:48.530Z,9.00
2023-02-05T02:15:17.611Z,9.10
2023-02-05T02:17:46.022Z,9.10
2023-02-05T02:20:22.708Z,9.10
2023-02-05T02:22:55.535Z,9.10
2023-02-05T02:25:48.958Z,9.10
2023-02-05T02:28:28.664Z,9.10
2023-02-05T02:31:07.031Z,9.10
2023-02-05T02:33:40.135Z,9.10
2023-02-05T02:36:13.111Z,9.10
2023-02-05T02:38:44.587Z,9.10
2023-02-05T02:41:25.416Z,9.00
2023-02-05T02:43:59.935Z,9.00
2023-02-05T02:46:49.805Z,8.90
2023-02-05T02:49:36.955Z,8.90
2023-02-05T02:52:05.577Z,8.80
2023-02-05T02:54:33.139Z,8.70
2023-02-05T02:56:59.849Z,8.70
2023-02-05T02:59:26.586Z,8.60
2023-02-05T03:01:56.787Z,8.50
2023-02-05T03:04:34.639Z,8.50
2023-02-05T03:07:06.151Z,8.40
2023-02-05T03:09:38.437Z,8.30
2023-02-05T03:12:07.243Z,8.30
2023-02-05T03:14:34.222Z,8.20
2023-02-05T03:17:00.908Z,8.20
2023-02-05T03:19:27.651Z,8.10
2023-02-05T03:22:01.645Z,8.10
2023-02-05T03:24:28.395Z,8.00
2023-02-05T03:26:55.034Z,8.00
2023-02-05T03:29:29.876Z,8.00
2023-02-05T03:32:28.168Z,8.00
2023-02-05T03:35:19.108Z,7.90
2023-02-05T03:37:49.091Z,7.90
2023-02-05T03:40:27.902Z,7.90
2023-02-05T03:42:57.631Z,7.90
2023-02-05T03:46:02.219Z,7.90
2023-02-05T03:48:36.340Z,7.80
2023-02-05T03:51:12.181Z,7.80
2023-02-05T03:53:49.264Z,7.70
2023-02-05T03:56:22.375Z,7.70
2023-02-05T03:58:50.298Z,7.50
2023-02-05T04:01:17.209Z,7.50
2023-02-05T04:03:43.930Z,7.40
2023-02-05T04:06:10.564Z,7.40
2023-02-05T04:08:37.286Z,7.30
2023-02-05T04:11:04.926Z,7.20
2023-02-05T04:13:31.565Z,7.20
2023-02-05T04:15:58.244Z,7.10
2023-02-05T04:18:24.993Z,7.10
2023-02-05T04:20:51.851Z,7.00
2023-02-05T04:23:18.641Z,7.00
2023-02-05T04:25:45.306Z,6.90
2023-02-05T04:28:12.055Z,6.80
2023-02-05T04:30:39.530Z,6.80
2023-02-05T04:33:06.263Z,6.80
2023-02-05T04:35:33.194Z,6.70
2023-02-05T04:38:00.139Z,6.70
2023-02-05T04:40:26.778Z,6.70
2023-02-05T04:42:53.440Z,6.60
2023-02-05T04:45:20.212Z,6.50
2023-02-05T04:47:46.915Z,6.50
2023-02-05T04:50:13.617Z,6.50
2023-02-05T04:52:40.355Z,6.50
2023-02-05T04:55:07.477Z,6.40
2023-02-05T04:57:34.130Z,6.40
2023-02-05T05:00:00.822Z,6.40
2023-02-05T05:02:27.599Z,6.30
2023-02-05T05:04:54.262Z,6.30
2023-02-05T05:07:20.968Z,6.30
2023-02-05T05:09:47.669Z,6.20
2023-02-05T05:12:14.391Z,6.20
2023-02-05T05:14:41.111Z,6.10
2023-02-05T05:17:07.794Z,6.10
2023-02-05T05:19:34.518Z,6.00
2023-02-05T05:22:01.211Z,6.00
2023-02-05T05:24:27.987Z,5.90
2023-02-05T05:26:54.665Z,5.90
2023-02-05T05:29:21.331Z,5.90
2023-02-05T05:31:48.163Z,5.90
2023-02-05T05:34:14.992Z,5.80
2023-02-05T05:36:43.703Z,5.80
2023-02-05T05:39:29.298Z,5.80
2023-02-05T05:42:14.669Z,5.70
2023-02-05T05:44:41.871Z,5.70
2023-02-05T05:47:08.593Z,5.60
2023-02-05T05:49:35.509Z,5.60
2023-02-05T05:52:02.195Z,5.50
2023-02-05T05:54:28.902Z,5.50
2023-02-05T05:56:55.603Z,5.40
2023-02-05T05:59:22.283Z,5.40
2023-02-05T06:01:49.004Z,5.40
2023-02-05T06:04:15.712Z,5.40
2023-02-05T06:06:42.585Z,5.30
2023-02-05T06:09:09.380Z,5.30
2023-02-05T06:11:36.049Z,5.30
2023-02-05T06:14:02.804Z,5.30
2023-02-05T06:16:29.467Z,5.20
2023-02-05T06:18:56.243Z,5.20
2023-02-05T06:21:23.045Z,5.20
2023-02-05T06:23:49.745Z,5.10
2023-02-05T06:26:16.544Z,5.10
2023-02-05T06:28:43.274Z,5.10
2023-02-05T06:31:10.092Z,5.00
2023-02-05T06:33:36.934Z,5.00
2023-02-05T06:36:03.958Z,4.90
2023-02-05T06:38:30.664Z,4.90
2023-02-05T06:40:57.370Z,4.90
2023-02-05T06:43:24.100Z,4.90
2023-02-05T06:45:50.768Z,4.90
2023-02-05T06:48:18.529Z,4.80
2023-02-05T06:50:45.249Z,4.80
2023-02-05T06:53:12.047Z,4.80
2023-02-05T06:55:38.814Z,4.80
2023-02-05T06:58:10.452Z,4.70
2023-02-05T07:00:37.222Z,4.70
2023-02-05T07:03:04.118Z,4.70
2023-02-05T07:05:30.879Z,4.70
2023-02-05T07:07:57.631Z,4.70
2023-02-05T07:10:24.365Z,4.70
2023-02-05T07:12:51.135Z,4.70
2023-02-05T07:15:17.905Z,4.70
2023-02-05T07:17:44.595Z,4.70
2023-02-05T07:20:11.561Z,4.70
2023-02-05T07:22:38.262Z,4.70
2023-02-05T07:25:05.229Z,4.60
2023-02-05T07:27:31.948Z,4.60
2023-02-05T07:29:59.420Z,4.50
2023-02-05T07:32:26.784Z,4.50
2023-02-05T07:34:53.643Z,4.50
2023-02-05T07:37:21.495Z,4.50
2023-02-05T07:39:48.429Z,4.40
2023-02-05T07:42:15.146Z,4.40
2023-02-05T07:44:41.910Z,4.40
2023-02-05T07:47:08.605Z,4.40
2023-02-05T07:49:35.929Z,4.40
2023-02-05T07:52:02.803Z,4.30
2023-02-05T07:54:29.593Z,4.40
2023-02-05T07:57:00.446Z,4.30
2023-02-05T07:59:28.668Z,4.30
2023-02-05T08:01:55.337Z,4.30
2023-02-05T08:04:22.238Z,4.30
2023-02-05T08:06:48.930Z,4.30
2023-02-05T08:09:16.795Z,4.30
2023-02-05T08:11:43.513Z,4.30
2023-02-05T08:14:10.192Z,4.30
2023-02-05T08:16:36.920Z,4.30
2023-02-05T08:19:03.760Z,4.30
2023-02-05T08:21:30.536Z,4.30
2023-02-05T08:23:58.526Z,4.30
2023-02-05T08:26:25.638Z,4.30
2023-02-05T08:28:52.328Z,4.40
2023-02-05T08:31:19.323Z,4.30
2023-02-05T08:33:47.893Z,4.40
2023-02-05T08:36:14.626Z,4.40
2023-02-05T08:38:41.348Z,4.50
2023-02-05T08:41:12.564Z,4.50
2023-02-05T08:43:46.260Z,4.40
2023-02-05T08:46:13.983Z,4.50
2023-02-05T08:48:40.825Z,4.50
2023-02-05T08:51:09.708Z,4.60
2023-02-05T08:53:38.849Z,4.50
2023-02-05T08:56:06.440Z,4.50
2023-02-05T08:58:33.316Z,4.60
2023-02-05T09:01:02.534Z,4.60
2023-02-05T09:03:30.797Z,4.70
2023-02-05T09:05:58.443Z,4.70
2023-02-05T09:08:26.113Z,4.70
2023-02-05T09:10:53.034Z,4.70
2023-02-05T09:13:19.778Z,4.70
2023-02-05T09:15:48.503Z,4.70
2023-02-05T09:18:15.588Z,4.70
2023-02-05T09:20:46.584Z,4.70
2023-02-05T09:23:14.042Z,4.80
2023-02-05T09:25:40.944Z,4.80
2023-02-05T09:28:09.423Z,4.80
2023-02-05T09:30:40.987Z,4.90
2023-02-05T09:33:08.705Z,4.90
2023-02-05T09:35:35.988Z,5.00
2023-02-05T09:38:03.418Z,5.00
2023-02-05T09:40:33.191Z,5.00
2023-02-05T09:43:05.259Z,5.10
2023-02-05T09:45:56.556Z,5.10
2023-02-05T09:48:35.426Z,5.10
2023-02-05T09:51:02.693Z,5.20
2023-02-05T09:53:34.373Z,5.20
2023-02-05T09:56:02.129Z,5.30
2023-02-05T09:58:35.942Z,5.30
2023-02-05T10:01:37.359Z,5.40
2023-02-05T10:04:06.406Z,5.50
2023-02-05T10:06:39.169Z,5.50
2023-02-05T10:09:24.663Z,5.50
2023-02-05T10:12:19.427Z,5.60
2023-02-05T10:14:57.177Z,5.70
2023-02-05T10:17:34.604Z,5.80
2023-02-05T10:20:32.553Z,5.90
2023-02-05T10:23:15.626Z,5.90
2023-02-05T10:25:57.834Z,6.00
2023-02-05T10:28:35.147Z,6.00
2023-02-05T10:31:07.620Z,6.10
2023-02-05T10:33:41.858Z,6.10
2023-02-05T10:36:09.242Z,6.10
2023-02-05T10:38:44.178Z,6.20
2023-02-05T10:41:26.029Z,6.20
2023-02-05T10:43:57.964Z,6.30
2023-02-05T10:46:28.398Z,6.30
2023-02-05T10:48:58.940Z,6.40
2023-02-05T10:51:32.240Z,6.40
2023-02-05T10:54:00.035Z,6.50
2023-02-05T10:56:27.153Z,6.50
2023-02-05T10:59:00.336Z,6.60
2023-02-05T11:01:32.391Z,6.70
2023-02-05T11:04:11.835Z,6.70
2023-02-05T11:06:41.348Z,6.80
2023-02-05T11:09:26.643Z,6.80
2023-02-05T11:11:59.164Z,6.90
2023-02-05T11:14:33.483Z,6.90
2023-02-05T11:17:04.136Z,7.00
2023-02-05T11:19:30.782Z,7.10
2023-02-05T11:22:00.559Z,7.10
2023-02-05T11:24:32.229Z,7.10
2023-02-05T11:27:28.249Z,7.20
2023-02-05T11:29:56.044Z,7.20
2023-02-05T11:32:36.561Z,7.30
2023-02-05T11:35:22.333Z,7.30
2023-02-05T11:38:20.224Z,7.40
2023-02-05T11:40:53.233Z,7.50
2023-02-05T11:43:22.992Z,7.70
2023-02-05T11:45:50.971Z,7.80
2023-02-05T11:48:29.139Z,7.90
2023-02-05T11:50:55.969Z,8.10
2023-02-05T11:53:23.836Z,8.20
2023-02-05T11:56:11.504Z,8.30
2023-02-05T11:58:38.799Z,8.50
2023-02-05T12:01:21.347Z,8.70
2023-02-05T12:04:02.061Z,8.90
2023-02-05T12:06:39.678Z,9.30
2023-02-05T12:09:06.681Z,9.70
2023-02-05T12:12:03.668Z,9.90
2023-02-05T12:14:40.109Z,10.10
2023-02-05T12:17:33.449Z,10.00
2023-02-05T12:20:15.664Z,9.80
2023-02-05T12:23:07.529Z,9.70
2023-02-05T12:26:03.673Z,9.70
2023-02-05T12:28:30.374Z,9.70
2023-02-05T12:31:23.507Z,9.60
2023-02-05T12:34:01.278Z,9.50
2023-02-05T12:36:30.839Z,9.70
2023-02-05T12:39:12.991Z,9.50
2023-02-05T12:41:57.369Z,9.60
2023-02-05T12:44:44.410Z,9.80
2023-02-05T12:47:32.842Z,9.90
2023-02-05T12:50:18.473Z,10.10
2023-02-05T12:52:56.085Z,10.30
2023-02-05T12:55:41.634Z,10.50
2023-02-05T12:58:10.790Z,10.60
2023-02-05T13:00:51.041Z,10.60
2023-02-05T13:03:47.232Z,10.90
2023-02-05T13:06:22.279Z,11.20
2023-02-05T13:08:56.611Z,11.40
2023-02-05T13:11:35.643Z,11.70
2023-02-05T13:14:05.848Z,11.80
2023-02-05T13:16:37.804Z,11.90
2023-02-05T13:19:26.816Z,11.90
2023-02-05T13:22:12.170Z,12.20
2023-02-05T13:25:00.265Z,12.80
2023-02-05T13:27:52.754Z,13.00
2023-02-05T13:30:50.835Z,12.90
2023-02-05T13:33:18.291Z,13.00
2023-02-05T13:36:18.128Z,12.70
2023-02-05T13:38:49.523Z,12.90
2023-02-05T13:41:54.722Z,12.80
2023-02-05T13:44:36.651Z,12.80
2023-02-05T13:47:11.111Z,13.20
2023-02-05T13:49:51.165Z,13.30
2023-02-05T13:52:28.308Z,13.40
2023-02-05T13:55:10.271Z,13.00
2023-02-05T13:58:01.799Z,13.00
2023-02-05T14:00:28.763Z,13.60
2023-02-05T14:02:56.292Z,14.10
2023-02-05T14:05:30.893Z,13.90
2023-02-05T14:08:01.919Z,13.80
2023-02-05T14:10:32.905Z,14.00
2023-02-05T14:13:34.268Z,13.90
2023-02-05T14:16:26.414Z,13.70
2023-02-05T14:19:02.434Z,13.70
2023-02-05T14:21:32.503Z,13.90
2023-02-05T14:24:02.839Z,14.40
2023-02-05T14:26:48.504Z,14.50
2023-02-05T14:29:48.166Z,14.40
2023-02-05T14:32:29.826Z,14.50
2023-02-05T14:35:00.150Z,14.80
2023-02-05T14:37:40.311Z,14.70
2023-02-05T14:40:22.258Z,14.50
2023-02-05T14:42:50.864Z,14.20
2023-02-05T14:45:17.571Z,14.10
2023-02-05T14:47:47.124Z,14.40
2023-02-05T14:50:21.142Z,14.30
2023-02-05T14:52:48.949Z,14.20
2023-02-05T14:55:18.241Z,13.90
2023-02-05T14:57:52.006Z,13.20
2023-02-05T15:00:30.825Z,12.60
2023-02-05T15:03:13.342Z,12.40
2023-02-05T15:06:02.051Z,12.20
2023-02-05T15:08:34.799Z,12.30
2023-02-05T15:11:13.488Z,12.50
2023-02-05T15:13:40.325Z,13.00
2023-02-05T15:16:14.300Z,13.20
2023-02-05T15:18:59.269Z,13.50
2023-02-05T15:21:30.583Z,13.20
2023-02-05T15:24:17.937Z,13.20
2023-02-05T15:27:02.878Z,13.40
2023-02-05T15:29:32.358Z,13.60
2023-02-05T15:32:07.185Z,13.90
2023-02-05T15:34:41.421Z,14.10
2023-02-05T15:37:32.326Z,13.90
2023-02-05T15:40:06.618Z,13.30
2023-02-05T15:42:37.144Z,12.90
2023-02-05T15:45:17.643Z,13.00
2023-02-05T15:47:44.769Z,13.00
2023-02-05T15:50:13.833Z,12.80
2023-02-05T15:52:40.705Z,12.80
2023-02-05T15:55:17.242Z,12.50
2023-02-05T15:57:44.254Z,12.10
2023-02-05T16:00:17.298Z,11.80
2023-02-05T16:02:52.853Z,11.70
2023-02-05T16:05:21.165Z,11.40
2023-02-05T16:07:51.877Z,11.10
2023-02-05T16:10:26.929Z,11.10
2023-02-05T16:13:16.569Z,11.00
2023-02-05T16:15:51.868Z,10.80
2023-02-05T16:18:38.688Z,10.50
2023-02-05T16:21:25.967Z,10.20
2023-02-05T16:24:22.450Z,9.90
2023-02-05T16:27:17.050Z,9.50
2023-02-05T16:29:57.518Z,9.30
2023-02-05T16:32:39.720Z,9.10
2023-02-05T16:35:07.982Z,8.80
2023-02-05T16:37:34.678Z,8.70
2023-02-05T16:40:05.031Z,8.50
2023-02-05T16:42:43.970Z,8.40
2023-02-05T16:45:11.031Z,8.30
2023-02-05T16:47:37.851Z,8.20
2023-02-05T16:50:39.260Z,8.10
2023-02-05T16:53:26.317Z,7.90
2023-02-05T16:56:10.995Z,7.80
2023-02-05T16:58:43.467Z,7.70
2023-02-05T17:01:11.255Z,7.50
2023-02-05T17:03:41.101Z,7.50
2023-02-05T17:06:37.652Z,7.30
2023-02-05T17:09:05.631Z,7.20
2023-02-05T17:11:40.232Z,7.10
2023-02-05T17:14:35.662Z,7.10
2023-02-05T17:17:03.995Z,7.00
2023-02-05T17:19:32.161Z,6.90
2023-02-05T17:22:14.536Z,6.90
2023-02-05T17:24:52.029Z,6.80
2023-02-05T17:27:28.815Z,6.80
2023-02-05T17:29:55.898Z,6.70
2023-02-05T17:32:23.000Z,6.60
2023-02-05T17:34:49.928Z,6.60
2023-02-05T17:37:17.313Z,6.60
2023-02-05T17:39:44.289Z,6.50
2023-02-05T17:42:19.890Z,6.50
2023-02-05T17:44:46.777Z,6.40
2023-02-05T17:47:13.685Z,6.40
2023-02-05T17:49:41.852Z,6.40
2023-02-05T17:52:09.824Z,6.40
2023-02-05T17:54:36.836Z,6.30
2023-02-05T17:57:22.401Z,6.30
2023-02-05T17:59:49.486Z,6.10
2023-02-05T18:02:16.658Z,6.10
2023-02-05T18:04:45.221Z,6.10
2023-02-05T18:07:32.976Z,5.90
2023-02-05T18:09:59.860Z,5.90
2023-02-05T18:12:26.966Z,5.90
2023-02-05T18:14:54.268Z,5.80
2023-02-05T18:17:21.097Z,5.80
2023-02-05T18:19:48.039Z,5.80
2023-02-05T18:22:15.096Z,5.80
2023-02-05T18:24:42.255Z,5.80
2023-02-05T18:27:09.441Z,5.70
2023-02-05T18:29:37.092Z,5.70
2023-02-05T18:32:04.884Z,5.70
2023-02-05T18:34:31.873Z,5.60
2023-02-05T18:36:59.165Z,5.60
2023-02-05T18:39:29.616Z,5.50
2023-02-05T18:41:57.893Z,5.50
2023-02-05T18:44:25.613Z,5.40
2023-02-05T18:46:52.707Z,5.40
2023-02-05T18:49:21.465Z,5.40
2023-02-05T18:51:48.177Z,5.30
2023-02-05T18:54:14.940Z,5.30
2023-02-05T18:56:41.660Z,5.20
2023-02-05T18:59:09.671Z,5.20
2023-02-05T19:01:38.360Z,5.10
2023-02-05T19:04:10.142Z,5.10
2023-02-05T19:06:37.093Z,5.10
2023-02-05T19:09:03.861Z,5.00
2023-02-05T19:11:30.784Z,5.00
2023-02-05T19:13:59.414Z,5.00
2023-02-05T19:16:26.815Z,5.00
2023-02-05T19:18:53.731Z,4.90
2023-02-05T19:21:20.798Z,4.90
2023-02-05T19:23:50.511Z,4.90
2023-02-05T19:26:18.585Z,4.80
2023-02-05T19:28:46.071Z,4.80
2023-02-05T19:31:14.363Z,4.70
2023-02-05T19:33:41.349Z,4.60
2023-02-05T19:36:09.252Z,4.60
2023-02-05T19:38:36.961Z,4.50
2023-02-05T19:41:14.610Z,4.50
2023-02-05T19:43:43.833Z,4.40
2023-02-05T19:46:10.607Z,4.30
2023-02-05T19:48:37.448Z,4.30
2023-02-05T19:51:05.526Z,4.30
2023-02-05T19:53:32.373Z,4.30
2023-02-05T19:56:08.682Z,4.30
2023-02-05T19:58:39.441Z,4.20
2023-02-05T20:01:26.744Z,4.20
2023-02-05T20:03:58.285Z,4.10
2023-02-05T20:06:26.459Z,4.10
2023-02-05T20:08:53.355Z,4.10
2023-02-05T20:11:20.690Z,4.00
2023-02-05T20:13:47.748Z,4.00
2023-02-05T20:16:16.597Z,4.00
2023-02-05T20:18:43.592Z,4.00
2023-02-05T20:21:12.630Z,3.90
2023-02-05T20:23:39.440Z,3.90
2023-02-05T20:26:07.790Z,3.80
2023-02-05T20:28:56.345Z,3.80
2023-02-05T20:31:41.293Z,3.80
2023-02-05T20:34:10.331Z,3.80
2023-02-05T20:36:37.310Z,3.70
2023-02-05T20:39:05.886Z,3.70
2023-02-05T20:41:32.942Z,3.70
2023-02-05T20:44:03.534Z,3.60
2023-02-05T20:46:32.252Z,3.50
2023-02-05T20:49:13.025Z,3.50
2023-02-05T20:51:50.792Z,3.50
2023-02-05T20:54:18.642Z,3.50
2023-02-05T20:56:59.840Z,3.40
2023-02-05T20:59:58.007Z,3.40
2023-02-05T21:02:36.232Z,3.50
2023-02-05T21:05:09.595Z,3.40
2023-02-05T21:07:37.138Z,3.50
2023-02-05T21:10:14.021Z,3.40
2023-02-05T21:12:44.384Z,3.40
2023-02-05T21:15:17.361Z,3.40
2023-02-05T21:17:46.873Z,3.40
2023-02-05T21:20:13.764Z,3.40
2023-02-05T21:22:40.467Z,3.50
2023-02-05T21:25:07.494Z,3.40
2023-02-05T21:27:34.191Z,3.40
2023-02-05T21:30:01.052Z,3.40
2023-02-05T21:32:27.885Z,3.40
2023-02-05T21:34:54.756Z,3.40
2023-02-05T21:37:21.468Z,3.50
2023-02-05T21:39:49.447Z,3.50
2023-02-05T21:42:17.530Z,3.50
2023-02-05T21:44:49.149Z,3.50
2023-02-05T21:47:15.848Z,3.50
2023-02-05T21:49:42.501Z,3.60
2023-02-05T21:52:09.214Z,3.60
2023-02-05T21:54:35.968Z,3.50
2023-02-05T21:57:02.724Z,3.50
2023-02-05T21:59:29.536Z,3.60
2023-02-05T22:01:56.407Z,3.60
2023-02-05T22:04:23.172Z,3.60
2023-02-05T22:06:50.172Z,3.60
2023-02-05T22:09:18.323Z,3.60
2023-02-05T22:11:45.262Z,3.50
2023-02-05T22:14:12.143Z,3.50
2023-02-05T22:16:38.995Z,3.50
2023-02-05T22:19:05.844Z,3.50
2023-02-05T22:21:34.683Z,3.50
2023-02-05T22:24:01.865Z,3.40
2023-02-05T22:26:30.590Z,3.50
2023-02-05T22:28:59.266Z,3.60
2023-02-05T22:31:29.701Z,3.60
2023-02-05T22:33:56.749Z,3.60
2023-02-05T22:36:25.862Z,3.60
2023-02-05T22:38:52.821Z,3.60
2023-02-05T22:41:22.110Z,3.60
2023-02-05T22:43:48.973Z,3.60
2023-02-05T22:46:17.629Z,3.50
2023-02-05T22:48:45.428Z,3.60
2023-02-05T22:51:15.081Z,3.60
2023-02-05T22:53:42.057Z,3.60
2023-02-05T22:56:11.308Z,3.60
2023-02-05T22:58:39.568Z,3.60
2023-02-05T23:01:33.546Z,3.60
2023-02-05T23:04:00.705Z,3.60
2023-02-05T23:06:32.148Z,3.60
2023-02-05T23:09:05.801Z,3.60
2023-02-05T23:11:32.931Z,3.60
2023-02-05T23:14:00.031Z,3.70
2023-02-05T23:16:28.624Z,3.70
2023-02-05T23:19:03.672Z,3.70
2023-02-05T23:21:31.526Z,3.70
2023-02-05T23:23:58.349Z,3.70
2023-02-05T23:26:26.918Z,3.70
2023-02-05T23:28:54.336Z,3.70
2023-02-05T23:31:23.940Z,3.60
2023-02-05T23:33:51.178Z,3.50
2023-02-05T23:36:17.980Z,3.60
2023-02-05T23:38:44.733Z,3.60
2023-02-05T23:41:12.467Z,3.50
2023-02-05T23:43:39.635Z,3.60
2023-02-05T23:46:06.852Z,3.60
2023-02-05T23:48:33.712Z,3.70
2023-02-05T23:51:00.478Z,3.70
2023-02-05T23:53:27.273Z,3.70
2023-02-05T23:55:54.119Z,3.80
2023-02-05T23:58:23.089Z,3.80
